createdAt,value
2022-09-17T00:01:45.683Z,96996.44
2022-09-17T00:05:26.720Z,96996.80
2022-09-17T00:08:58.660Z,96994.45
2022-09-17T00:12:36.708Z,96994.41
2022-09-17T00:16:12.481Z,96999.31
2022-09-17T00:20:12.164Z,96996.29
2022-09-17T00:23:33.933Z,96998.45
2022-09-17T00:27:29.764Z,96999.73
2022-09-17T00:31:10.759Z,96999.36
2022-09-17T00:34:33.008Z,96997.77
2022-09-17T00:38:10.715Z,96994.95
2022-09-17T00:41:46.569Z,96995.66
2022-09-17T00:45:42.508Z,96999.20
2022-09-17T00:49:12.878Z,96999.90
2022-09-17T00:52:47.992Z,97006.11
2022-09-17T00:56:27.011Z,97011.78
2022-09-17T00:59:56.327Z,97009.21
2022-09-17T01:03:50.203Z,97001.41
2022-09-17T01:07:58.397Z,96999.91
2022-09-17T01:11:48.766Z,96994.81
2022-09-17T01:15:28.569Z,96988.38
2022-09-17T01:19:05.639Z,96986.23
2022-09-17T01:22:31.060Z,96985.05
2022-09-17T01:26:39.721Z,96982.73
2022-09-17T01:30:31.805Z,96982.70
2022-09-17T01:34:27.418Z,96979.48
2022-09-17T01:38:43.721Z,96979.33
2022-09-17T01:42:37.145Z,96975.95
2022-09-17T01:46:17.069Z,96977.77
2022-09-17T01:50:04.530Z,96976.44
2022-09-17T01:53:38.775Z,96975.39
2022-09-17T01:57:17.142Z,96971.55
2022-09-17T02:01:08.865Z,96966.48
2022-09-17T02:04:37.078Z,96965.11
2022-09-17T02:08:20.601Z,96962.88
2022-09-17T02:11:49.628Z,96959.98
2022-09-17T02:15:27.527Z,96961.73
2022-09-17T02:19:06.960Z,96967.02
2022-09-17T02:22:52.641Z,96969.34
2022-09-17T02:26:20.453Z,96976.27
2022-09-17T02:29:51.699Z,96980.14
2022-09-17T02:33:30.961Z,96987.86
2022-09-17T02:37:06.829Z,96988.92
2022-09-17T02:40:50.042Z,96986.35
2022-09-17T02:44:44.904Z,96986.04
2022-09-17T02:48:36.986Z,96988.69
2022-09-17T02:52:24.125Z,96993.41
2022-09-17T02:55:52.603Z,96994.56
2022-09-17T02:59:41.964Z,96992.02
2022-09-17T03:03:20.934Z,96985.77
2022-09-17T03:07:08.444Z,96987.91
2022-09-17T03:10:33.602Z,96989.86
2022-09-17T03:14:06.657Z,96990.22
2022-09-17T03:17:43.492Z,96991.34
2022-09-17T03:21:20.340Z,96985.00
2022-09-17T03:25:16.213Z,96975.84
2022-09-17T03:28:37.716Z,96975.70
2022-09-17T03:32:14.496Z,96982.80
2022-09-17T03:35:51.106Z,96987.06
2022-09-17T03:39:29.434Z,96989.50
2022-09-17T03:43:06.085Z,96986.42
2022-09-17T03:46:42.085Z,96976.08
2022-09-17T03:50:37.464Z,96972.09
2022-09-17T03:53:59.231Z,96972.29
2022-09-17T03:57:36.071Z,96969.17
2022-09-17T04:01:13.350Z,96963.39
2022-09-17T04:05:08.880Z,96959.62
2022-09-17T04:08:31.160Z,96957.31
2022-09-17T04:12:07.810Z,96957.13
2022-09-17T04:15:45.393Z,96952.58
2022-09-17T04:19:21.417Z,96951.92
2022-09-17T04:22:58.106Z,96947.40
2022-09-17T04:26:35.090Z,96942.19
2022-09-17T04:30:13.015Z,96941.84
2022-09-17T04:33:48.754Z,96941.57
2022-09-17T04:37:25.961Z,96943.65
2022-09-17T04:41:21.262Z,96947.35
2022-09-17T04:45:02.072Z,96946.41
2022-09-17T04:48:43.216Z,96941.30
2022-09-17T04:52:05.239Z,96934.29
2022-09-17T04:55:43.727Z,96932.03
2022-09-17T04:59:18.632Z,96930.14
2022-09-17T05:02:56.542Z,96928.05
2022-09-17T05:06:32.260Z,96931.53
2022-09-17T05:10:10.459Z,96923.66
2022-09-17T05:13:46.253Z,96922.87
2022-09-17T05:17:22.551Z,96921.73
2022-09-17T05:20:59.416Z,96940.42
2022-09-17T05:24:39.338Z,96947.88
2022-09-17T05:28:12.994Z,96943.70
2022-09-17T05:31:49.753Z,96946.90
2022-09-17T05:35:45.994Z,96947.16
2022-09-17T05:39:07.839Z,96949.41
2022-09-17T05:42:44.430Z,96967.89
2022-09-17T05:46:21.235Z,96960.61
2022-09-17T05:50:16.895Z,96957.16
2022-09-17T05:53:42.504Z,96955.77
2022-09-17T05:57:16.128Z,96948.85
2022-09-17T06:01:15.460Z,96951.35
2022-09-17T06:05:00.149Z,96960.59
2022-09-17T06:08:22.684Z,96967.20
2022-09-17T06:11:58.412Z,96964.89
2022-09-17T06:15:35.484Z,96962.96
2022-09-17T06:19:11.830Z,96965.27
2022-09-17T06:22:48.606Z,96964.96
2022-09-17T06:26:44.720Z,96974.77
2022-09-17T06:30:07.606Z,96974.91
2022-09-17T06:33:43.495Z,96956.02
2022-09-17T06:37:20.092Z,96930.98
2022-09-17T06:40:57.036Z,96931.91
2022-09-17T06:44:33.918Z,96943.63
2022-09-17T06:48:10.935Z,96947.40
2022-09-17T06:52:06.340Z,96946.01
2022-09-17T06:55:47.580Z,96957.89
2022-09-17T06:59:09.224Z,96974.14
2022-09-17T07:03:04.915Z,96968.53
2022-09-17T07:06:27.026Z,96969.92
2022-09-17T07:10:03.587Z,96979.33
2022-09-17T07:13:40.134Z,96968.48
2022-09-17T07:17:17.184Z,96970.91
2022-09-17T07:20:59.656Z,96961.87
2022-09-17T07:24:32.966Z,96967.33
2022-09-17T07:28:28.219Z,96960.23
2022-09-17T07:32:09.386Z,96975.45
2022-09-17T07:35:31.630Z,96967.48
2022-09-17T07:39:27.824Z,96981.08
2022-09-17T07:42:51.106Z,96984.09
2022-09-17T07:46:45.257Z,96989.96
2022-09-17T07:50:08.571Z,96999.17
2022-09-17T07:53:43.753Z,96989.92
2022-09-17T07:57:39.767Z,96991.08
2022-09-17T08:01:07.174Z,96997.57
2022-09-17T08:04:37.846Z,97007.02
2022-09-17T08:08:18.863Z,96999.45
2022-09-17T08:12:10.537Z,96997.02
2022-09-17T08:15:33.732Z,96998.40
2022-09-17T08:19:32.347Z,96997.77
2022-09-17T08:23:00.462Z,96988.34
2022-09-17T08:26:30.938Z,96983.07
2022-09-17T08:30:08.433Z,96969.47
2022-09-17T08:34:10.113Z,96973.41
2022-09-17T08:37:32.990Z,96970.43
2022-09-17T08:41:12.583Z,96971.38
2022-09-17T08:44:48.598Z,96975.88
2022-09-17T08:48:25.626Z,96986.95
2022-09-17T08:52:20.657Z,96990.41
2022-09-17T08:56:12.715Z,96999.67
2022-09-17T09:00:09.293Z,96988.05
2022-09-17T09:03:34.435Z,96981.46
2022-09-17T09:07:39.703Z,96967.10
2022-09-17T09:11:05.699Z,96946.83
2022-09-17T09:14:51.314Z,96951.52
2022-09-17T09:18:42.430Z,96977.98
2022-09-17T09:22:14.840Z,96975.91
2022-09-17T09:26:08.388Z,96974.02
2022-09-17T09:30:11.479Z,96989.48
2022-09-17T09:33:39.336Z,96989.55
2022-09-17T09:37:22.175Z,96993.48
2022-09-17T09:41:16.852Z,97000.05
2022-09-17T09:44:39.814Z,96997.70
2022-09-17T09:49:00.030Z,96992.42
2022-09-17T09:52:46.574Z,97000.50
2022-09-17T09:56:42.198Z,97003.07
2022-09-17T10:00:28.146Z,97005.73
2022-09-17T10:04:31.811Z,97003.47
2022-09-17T10:07:54.278Z,97008.13
2022-09-17T10:12:04.772Z,97010.80
2022-09-17T10:15:28.427Z,97010.02
2022-09-17T10:19:24.736Z,97002.48
2022-09-17T10:23:06.577Z,96999.89
2022-09-17T10:26:32.506Z,97006.10
2022-09-17T10:30:08.176Z,97006.04
2022-09-17T10:33:52.864Z,97005.15
2022-09-17T10:37:45.801Z,97011.95
2022-09-17T10:41:13.381Z,97019.77
2022-09-17T10:45:00.039Z,97016.52
2022-09-17T10:48:22.832Z,97014.96
2022-09-17T10:52:34.379Z,97011.38
2022-09-17T10:56:23.095Z,97012.25
2022-09-17T11:00:13.380Z,97012.86
2022-09-17T11:03:48.859Z,97015.21
2022-09-17T11:08:17.327Z,97024.70
2022-09-17T11:12:19.249Z,97033.25
2022-09-17T11:16:02.305Z,97021.86
2022-09-17T11:19:36.457Z,97019.45
2022-09-17T11:23:37.648Z,97022.33
2022-09-17T11:27:15.235Z,97015.77
2022-09-17T11:30:57.478Z,97005.59
2022-09-17T11:34:29.292Z,97012.42
2022-09-17T11:38:21.809Z,97027.73
2022-09-17T11:41:49.398Z,97035.08
2022-09-17T11:45:27.309Z,97029.58
2022-09-17T11:49:05.773Z,97021.85
2022-09-17T11:53:04.103Z,97024.83
2022-09-17T11:56:31.126Z,97026.58
2022-09-17T12:00:18.154Z,97025.25
2022-09-17T12:03:49.170Z,97024.42
2022-09-17T12:07:42.692Z,97018.51
2022-09-17T12:11:32.742Z,97012.23
2022-09-17T12:15:01.653Z,96999.99
2022-09-17T12:18:43.732Z,96999.27
2022-09-17T12:22:17.986Z,97001.30
2022-09-17T12:26:19.113Z,97002.13
2022-09-17T12:30:23.006Z,97003.44
2022-09-17T12:34:50.079Z,97005.52
2022-09-17T12:38:53.140Z,97002.52
2022-09-17T12:42:40.104Z,96999.98
2022-09-17T12:46:33.686Z,96997.81
2022-09-17T12:50:18.787Z,96994.90
2022-09-17T12:53:59.771Z,96988.48
2022-09-17T12:57:45.108Z,96977.52
2022-09-17T13:01:20.935Z,96974.23
2022-09-17T13:05:24.145Z,96973.13
2022-09-17T13:09:26.909Z,96963.80
2022-09-17T13:13:00.920Z,96966.05
2022-09-17T13:16:49.321Z,96972.83
2022-09-17T13:20:20.859Z,96971.73
2022-09-17T13:23:51.581Z,96968.67
2022-09-17T13:27:26.879Z,96963.30
2022-09-17T13:31:02.110Z,96949.83
2022-09-17T13:34:38.864Z,96949.28
2022-09-17T13:38:20.188Z,96951.30
2022-09-17T13:42:16.729Z,96948.05
2022-09-17T13:46:00.890Z,96955.10
2022-09-17T13:49:23.698Z,96952.56
2022-09-17T13:53:26.195Z,96957.21
2022-09-17T13:57:07.937Z,96967.43
2022-09-17T14:01:07.274Z,96964.80
2022-09-17T14:04:54.166Z,96967.59
2022-09-17T14:08:31.671Z,96967.08
2022-09-17T14:11:54.759Z,96971.95
2022-09-17T14:15:33.852Z,96967.10
2022-09-17T14:19:37.067Z,96953.06
2022-09-17T14:23:02.670Z,96922.77
2022-09-17T14:27:09.100Z,96913.52
2022-09-17T14:30:33.672Z,96907.97
2022-09-17T14:34:22.150Z,96885.08
2022-09-17T14:38:33.136Z,96884.66
2022-09-17T14:41:56.047Z,96899.64
2022-09-17T14:45:35.909Z,96902.05
2022-09-17T14:49:33.388Z,96913.86
2022-09-17T14:52:56.761Z,96915.29
2022-09-17T14:56:59.292Z,96927.30
2022-09-17T15:00:46.471Z,96934.21
2022-09-17T15:04:14.668Z,96935.09
2022-09-17T15:07:46.617Z,96942.90
2022-09-17T15:11:22.610Z,96934.38
2022-09-17T15:15:25.893Z,96929.09
2022-09-17T15:18:54.416Z,96918.60
2022-09-17T15:22:46.142Z,96907.86
2022-09-17T15:26:08.071Z,96902.11
2022-09-17T15:29:49.863Z,96901.80
2022-09-17T15:33:42.082Z,96896.52
2022-09-17T15:37:17.595Z,96902.55
2022-09-17T15:40:42.171Z,96915.84
2022-09-17T15:44:32.078Z,96922.98
2022-09-17T15:48:00.617Z,96932.98
2022-09-17T15:51:35.038Z,96943.07
2022-09-17T15:55:48.427Z,96945.53
2022-09-17T15:59:37.587Z,96936.55
2022-09-17T16:03:41.873Z,96934.45
2022-09-17T16:07:28.881Z,96936.31
2022-09-17T16:10:50.945Z,96933.52
2022-09-17T16:14:27.767Z,96927.79
2022-09-17T16:18:05.300Z,96928.95
2022-09-17T16:21:41.343Z,96927.40
2022-09-17T16:25:38.499Z,96928.66
2022-09-17T16:29:07.348Z,96931.21
2022-09-17T16:32:38.257Z,96942.77
2022-09-17T16:36:17.047Z,96944.80
2022-09-17T16:39:52.484Z,96949.78
2022-09-17T16:43:27.713Z,96951.49
2022-09-17T16:47:04.457Z,96946.67
2022-09-17T16:51:05.593Z,96945.06
2022-09-17T16:54:27.369Z,96943.77
2022-09-17T16:58:04.265Z,96940.23
2022-09-17T17:01:41.339Z,96949.15
2022-09-17T17:05:37.514Z,96957.86
2022-09-17T17:09:02.412Z,96959.55
2022-09-17T17:12:56.694Z,96957.27
2022-09-17T17:16:19.311Z,96950.89
2022-09-17T17:19:55.596Z,96951.89
2022-09-17T17:23:32.617Z,96954.42
2022-09-17T17:27:28.645Z,96950.90
2022-09-17T17:30:51.044Z,96949.64
2022-09-17T17:34:27.952Z,96941.52
2022-09-17T17:38:04.432Z,96939.44
2022-09-17T17:41:41.147Z,96937.09
2022-09-17T17:45:17.843Z,96934.71
2022-09-17T17:48:55.141Z,96931.19
2022-09-17T17:52:53.760Z,96931.34
2022-09-17T17:56:18.102Z,96930.02
2022-09-17T17:59:52.898Z,96923.73
2022-09-17T18:03:29.292Z,96917.83
2022-09-17T18:07:06.218Z,96916.38
2022-09-17T18:11:05.044Z,96921.41
2022-09-17T18:14:26.851Z,96920.94
2022-09-17T18:18:05.837Z,96920.64
2022-09-17T18:21:40.340Z,96924.84
2022-09-17T18:25:17.551Z,96924.50
2022-09-17T18:28:54.659Z,96925.66
2022-09-17T18:32:31.007Z,96924.93
2022-09-17T18:36:07.776Z,96926.48
2022-09-17T18:39:58.097Z,96927.62
2022-09-17T18:43:21.470Z,96921.75
2022-09-17T18:46:58.691Z,96925.00
2022-09-17T18:50:35.587Z,96924.50
2022-09-17T18:54:15.091Z,96922.88
2022-09-17T18:57:52.640Z,96922.98
2022-09-17T19:01:28.171Z,96927.41
2022-09-17T19:05:02.364Z,96926.70
2022-09-17T19:08:39.259Z,96927.45
2022-09-17T19:12:16.058Z,96926.88
2022-09-17T19:15:58.972Z,96931.27
2022-09-17T19:19:30.194Z,96934.79
2022-09-17T19:23:25.128Z,96934.90
2022-09-17T19:26:50.761Z,96940.13
2022-09-17T19:30:43.057Z,96941.27
2022-09-17T19:34:04.928Z,96941.31
2022-09-17T19:37:41.912Z,96938.98
2022-09-17T19:41:20.907Z,96944.98
2022-09-17T19:44:55.615Z,96946.41
2022-09-17T19:48:32.627Z,96942.96
2022-09-17T19:52:27.834Z,96931.64
2022-09-17T19:55:53.210Z,96928.71
2022-09-17T19:59:26.988Z,96930.60
2022-09-17T20:03:04.357Z,96924.66
2022-09-17T20:06:40.985Z,96922.48
2022-09-17T20:10:37.298Z,96925.64
2022-09-17T20:14:06.700Z,96926.29
2022-09-17T20:17:35.767Z,96924.15
2022-09-17T20:21:33.429Z,96928.96
2022-09-17T20:24:55.398Z,96931.09
2022-09-17T20:28:33.353Z,96931.74
2022-09-17T20:32:27.993Z,96931.28
2022-09-17T20:35:50.097Z,96926.41
2022-09-17T20:39:27.061Z,96928.73
2022-09-17T20:43:05.276Z,96929.43
2022-09-17T20:46:46.037Z,96931.58
2022-09-17T20:50:17.132Z,96925.39
2022-09-17T20:53:54.177Z,96931.64
2022-09-17T20:57:31.930Z,96932.16
2022-09-17T21:01:17.732Z,96926.79
2022-09-17T21:04:44.296Z,96930.13
2022-09-17T21:08:20.971Z,96925.74
2022-09-17T21:11:57.854Z,96918.20
2022-09-17T21:15:34.497Z,96916.48
2022-09-17T21:19:12.964Z,96913.80
2022-09-17T21:22:48.167Z,96913.13
2022-09-17T21:26:25.055Z,96915.56
2022-09-17T21:30:03.072Z,96910.40
2022-09-17T21:33:39.228Z,96912.83
2022-09-17T21:37:15.505Z,96914.58
2022-09-17T21:40:59.080Z,96910.42
2022-09-17T21:44:29.352Z,96915.11
2022-09-17T21:48:05.591Z,96918.30
2022-09-17T21:51:42.909Z,96914.58
2022-09-17T21:55:19.416Z,96908.59
2022-09-17T21:58:59.266Z,96911.58
2022-09-17T22:02:32.770Z,96909.64
2022-09-17T22:06:16.117Z,96911.70
2022-09-17T22:10:05.857Z,96904.78
2022-09-17T22:14:04.217Z,96905.29
2022-09-17T22:17:26.470Z,96907.67
2022-09-17T22:21:21.146Z,96909.95
2022-09-17T22:24:44.848Z,96904.96
2022-09-17T22:28:21.699Z,96901.92
2022-09-17T22:31:57.413Z,96900.02
2022-09-17T22:35:33.887Z,96903.02
2022-09-17T22:39:11.069Z,96904.85
2022-09-17T22:43:06.438Z,96901.67
2022-09-17T22:46:50.045Z,96902.45
2022-09-17T22:50:12.264Z,96897.95
2022-09-17T22:53:49.412Z,96900.81
2022-09-17T22:57:44.642Z,96903.87
2022-09-17T23:01:29.184Z,96901.81
2022-09-17T23:05:09.674Z,96901.05
2022-09-17T23:08:33.177Z,96899.97
2022-09-17T23:12:27.212Z,96895.08
2022-09-17T23:20:19.733Z,96894.01
2022-09-17T23:24:07.672Z,96893.34
2022-09-17T23:27:43.571Z,96892.90
2022-09-17T23:31:40.021Z,96891.09
2022-09-17T23:35:02.123Z,96891.39
2022-09-17T23:38:40.068Z,96888.23
2022-09-17T23:42:17.085Z,96892.52
2022-09-17T23:46:11.953Z,96889.82
2022-09-17T23:49:34.172Z,96892.16
2022-09-17T23:53:10.550Z,96895.56
2022-09-17T23:56:47.400Z,96896.15
